sensor_id;sensor_type;location;lat;lon;timestamp;P1;durP1;ratioP1;P2;durP2;ratioP2
21621;SDS011;10973;46.706;12.340;2022-12-07T00:01:39;7.50;;;2.20;;
21621;SDS011;10973;46.706;12.340;2022-12-07T00:04:11;1.73;;;1.73;;
21621;SDS011;10973;46.706;12.340;2022-12-07T00:06:41;2.20;;;2.10;;
21621;SDS011;10973;46.706;12.340;2022-12-07T00:09:13;1.90;;;1.80;;
21621;SDS011;10973;46.706;12.340;2022-12-07T00:11:43;1.93;;;1.80;;
21621;SDS011;10973;46.706;12.340;2022-12-07T00:14:15;1.57;;;1.50;;
21621;SDS011;10973;46.706;12.340;2022-12-07T00:16:43;3.60;;;2.10;;
21621;SDS011;10973;46.706;12.340;2022-12-07T00:19:12;1.97;;;1.87;;
21621;SDS011;10973;46.706;12.340;2022-12-07T00:21:40;2.10;;;2.00;;
21621;SDS011;10973;46.706;12.340;2022-12-07T00:24:09;2.13;;;2.03;;
21621;SDS011;10973;46.706;12.340;2022-12-07T00:26:38;2.23;;;2.07;;
21621;SDS011;10973;46.706;12.340;2022-12-07T00:29:17;2.00;;;1.90;;
21621;SDS011;10973;46.706;12.340;2022-12-07T00:31:46;2.30;;;2.20;;
21621;SDS011;10973;46.706;12.340;2022-12-07T00:34:15;3.23;;;2.20;;
21621;SDS011;10973;46.706;12.340;2022-12-07T00:36:47;2.00;;;1.90;;
21621;SDS011;10973;46.706;12.340;2022-12-07T00:39:16;2.03;;;1.93;;
21621;SDS011;10973;46.706;12.340;2022-12-07T00:41:43;2.50;;;2.17;;
21621;SDS011;10973;46.706;12.340;2022-12-07T00:44:11;2.33;;;2.23;;
21621;SDS011;10973;46.706;12.340;2022-12-07T00:46:38;2.30;;;2.20;;
21621;SDS011;10973;46.706;12.340;2022-12-07T00:49:05;2.47;;;2.27;;
21621;SDS011;10973;46.706;12.340;2022-12-07T00:51:32;2.13;;;2.03;;
21621;SDS011;10973;46.706;12.340;2022-12-07T00:54:00;2.20;;;2.10;;
21621;SDS011;10973;46.706;12.340;2022-12-07T00:56:28;2.10;;;2.00;;
21621;SDS011;10973;46.706;12.340;2022-12-07T01:01:29;2.87;;;2.67;;
21621;SDS011;10973;46.706;12.340;2022-12-07T01:04:01;2.10;;;2.00;;
21621;SDS011;10973;46.706;12.340;2022-12-07T01:06:29;2.83;;;2.63;;
21621;SDS011;10973;46.706;12.340;2022-12-07T01:08:57;3.10;;;2.30;;
21621;SDS011;10973;46.706;12.340;2022-12-07T01:11:26;2.63;;;2.43;;
21621;SDS011;10973;46.706;12.340;2022-12-07T01:13:56;2.60;;;2.50;;
21621;SDS011;10973;46.706;12.340;2022-12-07T01:16:26;3.53;;;2.73;;
21621;SDS011;10973;46.706;12.340;2022-12-07T01:18:56;2.97;;;2.77;;
21621;SDS011;10973;46.706;12.340;2022-12-07T01:21:29;6.70;;;3.17;;
21621;SDS011;10973;46.706;12.340;2022-12-07T01:24:02;3.27;;;2.97;;
21621;SDS011;10973;46.706;12.340;2022-12-07T01:26:31;3.17;;;2.97;;
21621;SDS011;10973;46.706;12.340;2022-12-07T01:28:58;3.70;;;3.20;;
21621;SDS011;10973;46.706;12.340;2022-12-07T01:31:26;4.27;;;3.80;;
21621;SDS011;10973;46.706;12.340;2022-12-07T01:33:55;3.70;;;3.40;;
21621;SDS011;10973;46.706;12.340;2022-12-07T01:36:25;3.37;;;3.07;;
21621;SDS011;10973;46.706;12.340;2022-12-07T01:39:00;3.50;;;3.00;;
21621;SDS011;10973;46.706;12.340;2022-12-07T01:41:35;3.40;;;3.10;;
21621;SDS011;10973;46.706;12.340;2022-12-07T01:44:13;7.83;;;2.73;;
21621;SDS011;10973;46.706;12.340;2022-12-07T01:46:44;3.10;;;2.40;;
21621;SDS011;10973;46.706;12.340;2022-12-07T01:52:14;2.63;;;2.43;;
21621;SDS011;10973;46.706;12.340;2022-12-07T01:54:58;2.60;;;2.40;;
21621;SDS011;10973;46.706;12.340;2022-12-07T01:57:34;2.10;;;2.00;;
21621;SDS011;10973;46.706;12.340;2022-12-07T02:00:08;3.57;;;2.60;;
21621;SDS011;10973;46.706;12.340;2022-12-07T02:02:37;2.73;;;2.53;;
21621;SDS011;10973;46.706;12.340;2022-12-07T02:05:22;2.47;;;2.37;;
21621;SDS011;10973;46.706;12.340;2022-12-07T02:07:53;2.60;;;2.10;;
21621;SDS011;10973;46.706;12.340;2022-12-07T02:10:27;2.70;;;2.37;;
21621;SDS011;10973;46.706;12.340;2022-12-07T02:12:59;3.73;;;2.20;;
21621;SDS011;10973;46.706;12.340;2022-12-07T02:28:33;1.90;;;1.80;;
21621;SDS011;10973;46.706;12.340;2022-12-07T02:31:06;2.00;;;1.90;;
21621;SDS011;10973;46.706;12.340;2022-12-07T02:33:46;2.00;;;1.90;;
21621;SDS011;10973;46.706;12.340;2022-12-07T02:36:32;1.70;;;1.70;;
21621;SDS011;10973;46.706;12.340;2022-12-07T02:39:20;1.93;;;1.83;;
21621;SDS011;10973;46.706;12.340;2022-12-07T02:42:12;2.50;;;2.30;;
21621;SDS011;10973;46.706;12.340;2022-12-07T02:44:45;2.50;;;2.40;;
21621;SDS011;10973;46.706;12.340;2022-12-07T02:47:14;2.33;;;2.13;;
21621;SDS011;10973;46.706;12.340;2022-12-07T02:49:46;2.20;;;2.10;;
21621;SDS011;10973;46.706;12.340;2022-12-07T02:52:13;2.40;;;2.10;;
21621;SDS011;10973;46.706;12.340;2022-12-07T02:54:41;2.70;;;2.00;;
21621;SDS011;10973;46.706;12.340;2022-12-07T02:57:17;2.13;;;2.03;;
21621;SDS011;10973;46.706;12.340;2022-12-07T03:00:13;2.00;;;2.00;;
21621;SDS011;10973;46.706;12.340;2022-12-07T03:02:58;2.50;;;2.00;;
21621;SDS011;10973;46.706;12.340;2022-12-07T03:12:09;1.93;;;1.83;;
21621;SDS011;10973;46.706;12.340;2022-12-07T03:15:02;2.40;;;2.20;;
21621;SDS011;10973;46.706;12.340;2022-12-07T03:17:42;3.30;;;2.80;;
21621;SDS011;10973;46.706;12.340;2022-12-07T03:20:16;2.40;;;2.20;;
21621;SDS011;10973;46.706;12.340;2022-12-07T03:22:49;2.43;;;2.20;;
21621;SDS011;10973;46.706;12.340;2022-12-07T03:25:20;4.37;;;2.47;;
21621;SDS011;10973;46.706;12.340;2022-12-07T03:27:53;2.57;;;2.37;;
21621;SDS011;10973;46.706;12.340;2022-12-07T03:33:46;2.67;;;2.27;;
21621;SDS011;10973;46.706;12.340;2022-12-07T03:36:28;2.63;;;2.53;;
21621;SDS011;10973;46.706;12.340;2022-12-07T03:42:00;4.27;;;3.33;;
21621;SDS011;10973;46.706;12.340;2022-12-07T03:44:34;3.67;;;3.10;;
21621;SDS011;10973;46.706;12.340;2022-12-07T03:47:26;2.90;;;2.70;;
21621;SDS011;10973;46.706;12.340;2022-12-07T03:53:07;3.23;;;2.43;;
21621;SDS011;10973;46.706;12.340;2022-12-07T03:55:42;2.73;;;2.00;;
21621;SDS011;10973;46.706;12.340;2022-12-07T03:58:15;3.07;;;2.77;;
21621;SDS011;10973;46.706;12.340;2022-12-07T04:00:46;3.00;;;2.77;;
21621;SDS011;10973;46.706;12.340;2022-12-07T04:03:16;4.33;;;2.53;;
21621;SDS011;10973;46.706;12.340;2022-12-07T04:05:44;2.57;;;2.47;;
21621;SDS011;10973;46.706;12.340;2022-12-07T04:08:11;2.77;;;2.57;;
21621;SDS011;10973;46.706;12.340;2022-12-07T04:10:39;2.30;;;2.20;;
21621;SDS011;10973;46.706;12.340;2022-12-07T04:13:06;2.30;;;2.20;;
21621;SDS011;10973;46.706;12.340;2022-12-07T04:15:33;4.63;;;2.17;;
21621;SDS011;10973;46.706;12.340;2022-12-07T04:18:01;2.67;;;1.83;;
21621;SDS011;10973;46.706;12.340;2022-12-07T04:20:28;4.53;;;2.37;;
21621;SDS011;10973;46.706;12.340;2022-12-07T04:22:55;2.60;;;2.40;;
21621;SDS011;10973;46.706;12.340;2022-12-07T04:25:22;4.13;;;2.50;;
21621;SDS011;10973;46.706;12.340;2022-12-07T04:27:49;2.70;;;2.50;;
21621;SDS011;10973;46.706;12.340;2022-12-07T04:30:17;6.77;;;3.67;;
21621;SDS011;10973;46.706;12.340;2022-12-07T04:32:44;3.47;;;3.23;;
21621;SDS011;10973;46.706;12.340;2022-12-07T04:35:12;3.80;;;3.33;;
21621;SDS011;10973;46.706;12.340;2022-12-07T04:37:39;7.07;;;4.20;;
21621;SDS011;10973;46.706;12.340;2022-12-07T04:40:09;3.40;;;3.10;;
21621;SDS011;10973;46.706;12.340;2022-12-07T04:42:38;2.83;;;2.63;;
21621;SDS011;10973;46.706;12.340;2022-12-07T04:45:06;3.57;;;2.67;;
21621;SDS011;10973;46.706;12.340;2022-12-07T04:47:34;6.43;;;3.63;;
21621;SDS011;10973;46.706;12.340;2022-12-07T04:50:01;3.97;;;3.23;;
21621;SDS011;10973;46.706;12.340;2022-12-07T04:52:29;4.07;;;3.50;;
21621;SDS011;10973;46.706;12.340;2022-12-07T04:54:57;9.93;;;3.80;;
21621;SDS011;10973;46.706;12.340;2022-12-07T04:57:24;4.87;;;3.90;;
21621;SDS011;10973;46.706;12.340;2022-12-07T04:59:51;4.23;;;3.93;;
21621;SDS011;10973;46.706;12.340;2022-12-07T05:02:19;3.80;;;3.50;;
21621;SDS011;10973;46.706;12.340;2022-12-07T05:04:46;4.43;;;4.03;;
21621;SDS011;10973;46.706;12.340;2022-12-07T05:07:13;4.73;;;4.33;;
21621;SDS011;10973;46.706;12.340;2022-12-07T05:09:41;6.43;;;4.80;;
21621;SDS011;10973;46.706;12.340;2022-12-07T05:12:08;6.57;;;4.57;;
21621;SDS011;10973;46.706;12.340;2022-12-07T05:14:35;4.20;;;3.47;;
21621;SDS011;10973;46.706;12.340;2022-12-07T05:17:03;7.93;;;3.93;;
21621;SDS011;10973;46.706;12.340;2022-12-07T05:19:30;7.70;;;5.40;;
21621;SDS011;10973;46.706;12.340;2022-12-07T05:21:57;10.10;;;6.20;;
21621;SDS011;10973;46.706;12.340;2022-12-07T05:24:25;7.23;;;6.33;;
21621;SDS011;10973;46.706;12.340;2022-12-07T05:26:52;8.17;;;6.77;;
21621;SDS011;10973;46.706;12.340;2022-12-07T05:29:19;5.50;;;5.00;;
21621;SDS011;10973;46.706;12.340;2022-12-07T05:31:46;10.33;;;6.57;;
21621;SDS011;10973;46.706;12.340;2022-12-07T05:34:14;13.17;;;9.07;;
21621;SDS011;10973;46.706;12.340;2022-12-07T05:36:41;10.30;;;8.00;;
21621;SDS011;10973;46.706;12.340;2022-12-07T05:39:09;11.30;;;7.10;;
21621;SDS011;10973;46.706;12.340;2022-12-07T05:41:37;10.77;;;7.70;;
21621;SDS011;10973;46.706;12.340;2022-12-07T05:44:04;10.10;;;7.17;;
21621;SDS011;10973;46.706;12.340;2022-12-07T05:46:32;9.83;;;7.50;;
21621;SDS011;10973;46.706;12.340;2022-12-07T05:49:00;8.73;;;7.47;;
21621;SDS011;10973;46.706;12.340;2022-12-07T05:51:28;13.43;;;7.97;;
21621;SDS011;10973;46.706;12.340;2022-12-07T05:53:55;9.23;;;6.13;;
21621;SDS011;10973;46.706;12.340;2022-12-07T05:56:22;7.60;;;6.80;;
21621;SDS011;10973;46.706;12.340;2022-12-07T05:58:50;6.80;;;6.00;;
21621;SDS011;10973;46.706;12.340;2022-12-07T06:01:17;7.60;;;5.97;;
21621;SDS011;10973;46.706;12.340;2022-12-07T06:03:44;7.97;;;6.53;;
21621;SDS011;10973;46.706;12.340;2022-12-07T06:06:12;9.93;;;7.00;;
21621;SDS011;10973;46.706;12.340;2022-12-07T06:08:39;10.77;;;7.90;;
21621;SDS011;10973;46.706;12.340;2022-12-07T06:11:07;15.67;;;8.50;;
21621;SDS011;10973;46.706;12.340;2022-12-07T06:13:35;12.50;;;9.03;;
21621;SDS011;10973;46.706;12.340;2022-12-07T06:16:07;12.13;;;9.43;;
21621;SDS011;10973;46.706;12.340;2022-12-07T06:18:35;13.50;;;10.07;;
21621;SDS011;10973;46.706;12.340;2022-12-07T06:21:02;10.80;;;8.43;;
21621;SDS011;10973;46.706;12.340;2022-12-07T06:23:30;10.97;;;7.17;;
21621;SDS011;10973;46.706;12.340;2022-12-07T06:25:57;8.93;;;7.60;;
21621;SDS011;10973;46.706;12.340;2022-12-07T06:28:24;9.70;;;8.17;;
21621;SDS011;10973;46.706;12.340;2022-12-07T06:30:58;9.57;;;8.60;;
21621;SDS011;10973;46.706;12.340;2022-12-07T06:33:30;15.33;;;11.63;;
21621;SDS011;10973;46.706;12.340;2022-12-07T06:35:57;11.37;;;8.97;;
21621;SDS011;10973;46.706;12.340;2022-12-07T06:38:24;8.00;;;7.20;;
21621;SDS011;10973;46.706;12.340;2022-12-07T06:40:52;10.33;;;8.50;;
21621;SDS011;10973;46.706;12.340;2022-12-07T06:43:19;13.37;;;9.63;;
21621;SDS011;10973;46.706;12.340;2022-12-07T06:45:46;19.73;;;11.37;;
21621;SDS011;10973;46.706;12.340;2022-12-07T06:48:14;11.73;;;8.67;;
21621;SDS011;10973;46.706;12.340;2022-12-07T06:50:45;17.33;;;9.80;;
21621;SDS011;10973;46.706;12.340;2022-12-07T06:54:03;9.70;;;7.17;;
21621;SDS011;10973;46.706;12.340;2022-12-07T06:56:31;8.57;;;7.03;;
21621;SDS011;10973;46.706;12.340;2022-12-07T06:59:00;11.57;;;7.63;;
21621;SDS011;10973;46.706;12.340;2022-12-07T07:01:28;14.07;;;11.00;;
21621;SDS011;10973;46.706;12.340;2022-12-07T07:03:55;11.10;;;7.77;;
21621;SDS011;10973;46.706;12.340;2022-12-07T07:06:23;7.30;;;5.73;;
21621;SDS011;10973;46.706;12.340;2022-12-07T07:08:51;10.33;;;7.67;;
21621;SDS011;10973;46.706;12.340;2022-12-07T07:11:18;15.77;;;11.07;;
21621;SDS011;10973;46.706;12.340;2022-12-07T07:13:46;15.37;;;10.70;;
21621;SDS011;10973;46.706;12.340;2022-12-07T07:16:13;7.37;;;5.10;;
21621;SDS011;10973;46.706;12.340;2022-12-07T07:18:41;7.57;;;5.97;;
21621;SDS011;10973;46.706;12.340;2022-12-07T07:21:09;20.03;;;12.60;;
21621;SDS011;10973;46.706;12.340;2022-12-07T07:23:36;39.93;;;25.53;;
21621;SDS011;10973;46.706;12.340;2022-12-07T07:26:03;30.97;;;19.97;;
21621;SDS011;10973;46.706;12.340;2022-12-07T07:28:31;30.23;;;19.67;;
21621;SDS011;10973;46.706;12.340;2022-12-07T07:30:58;7.63;;;6.67;;
21621;SDS011;10973;46.706;12.340;2022-12-07T07:33:25;14.50;;;10.17;;
21621;SDS011;10973;46.706;12.340;2022-12-07T07:35:53;14.20;;;10.23;;
21621;SDS011;10973;46.706;12.340;2022-12-07T07:38:20;17.67;;;10.70;;
21621;SDS011;10973;46.706;12.340;2022-12-07T07:40:47;18.30;;;11.77;;
21621;SDS011;10973;46.706;12.340;2022-12-07T07:43:14;16.87;;;11.63;;
21621;SDS011;10973;46.706;12.340;2022-12-07T07:45:42;16.83;;;12.57;;
21621;SDS011;10973;46.706;12.340;2022-12-07T07:48:10;15.57;;;11.43;;
21621;SDS011;10973;46.706;12.340;2022-12-07T07:50:38;17.27;;;11.37;;
21621;SDS011;10973;46.706;12.340;2022-12-07T07:53:05;22.37;;;15.40;;
21621;SDS011;10973;46.706;12.340;2022-12-07T07:55:32;54.20;;;29.40;;
21621;SDS011;10973;46.706;12.340;2022-12-07T07:58:00;22.13;;;13.23;;
21621;SDS011;10973;46.706;12.340;2022-12-07T08:00:27;15.43;;;10.73;;
21621;SDS011;10973;46.706;12.340;2022-12-07T08:02:54;45.30;;;28.27;;
21621;SDS011;10973;46.706;12.340;2022-12-07T08:05:22;13.17;;;9.27;;
21621;SDS011;10973;46.706;12.340;2022-12-07T08:07:49;8.70;;;7.03;;
21621;SDS011;10973;46.706;12.340;2022-12-07T08:10:16;8.47;;;7.50;;
21621;SDS011;10973;46.706;12.340;2022-12-07T08:12:44;21.30;;;15.10;;
21621;SDS011;10973;46.706;12.340;2022-12-07T08:15:11;23.10;;;10.23;;
21621;SDS011;10973;46.706;12.340;2022-12-07T08:17:38;24.00;;;14.93;;
21621;SDS011;10973;46.706;12.340;2022-12-07T08:20:06;29.10;;;20.53;;
21621;SDS011;10973;46.706;12.340;2022-12-07T08:22:33;65.20;;;34.63;;
21621;SDS011;10973;46.706;12.340;2022-12-07T08:25:01;29.30;;;19.03;;
21621;SDS011;10973;46.706;12.340;2022-12-07T08:27:28;13.27;;;7.03;;
21621;SDS011;10973;46.706;12.340;2022-12-07T08:29:55;12.43;;;9.50;;
21621;SDS011;10973;46.706;12.340;2022-12-07T08:32:22;20.80;;;13.17;;
21621;SDS011;10973;46.706;12.340;2022-12-07T08:34:51;26.23;;;16.33;;
21621;SDS011;10973;46.706;12.340;2022-12-07T08:37:19;31.80;;;18.43;;
21621;SDS011;10973;46.706;12.340;2022-12-07T08:39:46;36.53;;;20.07;;
21621;SDS011;10973;46.706;12.340;2022-12-07T08:42:13;37.30;;;19.63;;
21621;SDS011;10973;46.706;12.340;2022-12-07T08:44:40;20.03;;;12.27;;
21621;SDS011;10973;46.706;12.340;2022-12-07T08:47:08;20.83;;;11.60;;
21621;SDS011;10973;46.706;12.340;2022-12-07T08:49:38;18.43;;;10.60;;
21621;SDS011;10973;46.706;12.340;2022-12-07T08:52:12;17.27;;;12.23;;
21621;SDS011;10973;46.706;12.340;2022-12-07T08:54:40;30.43;;;20.57;;
21621;SDS011;10973;46.706;12.340;2022-12-07T08:57:09;21.13;;;14.87;;
21621;SDS011;10973;46.706;12.340;2022-12-07T08:59:37;20.53;;;14.27;;
21621;SDS011;10973;46.706;12.340;2022-12-07T09:02:05;26.87;;;15.90;;
21621;SDS011;10973;46.706;12.340;2022-12-07T09:04:33;24.27;;;17.87;;
21621;SDS011;10973;46.706;12.340;2022-12-07T09:07:00;23.97;;;17.13;;
21621;SDS011;10973;46.706;12.340;2022-12-07T09:09:28;21.50;;;12.50;;
21621;SDS011;10973;46.706;12.340;2022-12-07T09:11:55;12.90;;;9.47;;
21621;SDS011;10973;46.706;12.340;2022-12-07T09:14:22;12.60;;;9.67;;
21621;SDS011;10973;46.706;12.340;2022-12-07T09:16:50;20.43;;;12.13;;
21621;SDS011;10973;46.706;12.340;2022-12-07T09:19:17;14.93;;;10.37;;
21621;SDS011;10973;46.706;12.340;2022-12-07T09:21:44;12.67;;;10.27;;
21621;SDS011;10973;46.706;12.340;2022-12-07T09:24:12;7.20;;;6.27;;
21621;SDS011;10973;46.706;12.340;2022-12-07T09:26:40;13.90;;;8.20;;
21621;SDS011;10973;46.706;12.340;2022-12-07T09:29:07;12.60;;;10.43;;
21621;SDS011;10973;46.706;12.340;2022-12-07T09:31:35;23.77;;;17.50;;
21621;SDS011;10973;46.706;12.340;2022-12-07T09:34:03;42.43;;;25.67;;
21621;SDS011;10973;46.706;12.340;2022-12-07T09:36:31;5.90;;;5.30;;
21621;SDS011;10973;46.706;12.340;2022-12-07T09:38:59;6.40;;;4.50;;
21621;SDS011;10973;46.706;12.340;2022-12-07T09:41:27;6.80;;;4.93;;
21621;SDS011;10973;46.706;12.340;2022-12-07T09:44:09;8.73;;;5.10;;
21621;SDS011;10973;46.706;12.340;2022-12-07T09:46:42;27.80;;;12.67;;
21621;SDS011;10973;46.706;12.340;2022-12-07T09:49:13;28.60;;;14.70;;
21621;SDS011;10973;46.706;12.340;2022-12-07T09:51:46;19.33;;;11.77;;
21621;SDS011;10973;46.706;12.340;2022-12-07T09:54:15;8.87;;;5.97;;
21621;SDS011;10973;46.706;12.340;2022-12-07T09:56:43;4.83;;;4.33;;
21621;SDS011;10973;46.706;12.340;2022-12-07T09:59:17;7.37;;;5.30;;
21621;SDS011;10973;46.706;12.340;2022-12-07T10:01:46;7.73;;;4.50;;
21621;SDS011;10973;46.706;12.340;2022-12-07T10:04:17;6.07;;;4.50;;
21621;SDS011;10973;46.706;12.340;2022-12-07T10:06:51;6.17;;;4.27;;
21621;SDS011;10973;46.706;12.340;2022-12-07T10:09:20;6.23;;;3.73;;
21621;SDS011;10973;46.706;12.340;2022-12-07T10:12:08;9.77;;;5.67;;
21621;SDS011;10973;46.706;12.340;2022-12-07T10:14:39;10.17;;;7.53;;
21621;SDS011;10973;46.706;12.340;2022-12-07T10:20:13;12.27;;;7.93;;
21621;SDS011;10973;46.706;12.340;2022-12-07T10:23:00;6.13;;;5.43;;
21621;SDS011;10973;46.706;12.340;2022-12-07T10:25:32;10.40;;;4.27;;
21621;SDS011;10973;46.706;12.340;2022-12-07T10:30:45;3.63;;;2.87;;
21621;SDS011;10973;46.706;12.340;2022-12-07T10:36:00;7.33;;;4.77;;
21621;SDS011;10973;46.706;12.340;2022-12-07T10:38:46;14.00;;;9.23;;
21621;SDS011;10973;46.706;12.340;2022-12-07T10:41:17;10.83;;;6.60;;
21621;SDS011;10973;46.706;12.340;2022-12-07T10:43:48;5.93;;;5.13;;
21621;SDS011;10973;46.706;12.340;2022-12-07T10:58:14;6.83;;;4.57;;
21621;SDS011;10973;46.706;12.340;2022-12-07T11:10:57;4.00;;;3.30;;
21621;SDS011;10973;46.706;12.340;2022-12-07T11:22:11;2.97;;;2.77;;
21621;SDS011;10973;46.706;12.340;2022-12-07T11:27:43;2.77;;;2.57;;
21621;SDS011;10973;46.706;12.340;2022-12-07T11:33:44;4.43;;;3.40;;
21621;SDS011;10973;46.706;12.340;2022-12-07T11:39:26;2.73;;;2.53;;
21621;SDS011;10973;46.706;12.340;2022-12-07T11:45:17;1.87;;;1.77;;
21621;SDS011;10973;46.706;12.340;2022-12-07T11:51:02;2.20;;;2.10;;
21621;SDS011;10973;46.706;12.340;2022-12-07T11:53:33;2.83;;;2.07;;
21621;SDS011;10973;46.706;12.340;2022-12-07T11:56:15;2.03;;;1.93;;
21621;SDS011;10973;46.706;12.340;2022-12-07T12:09:13;2.30;;;2.20;;
21621;SDS011;10973;46.706;12.340;2022-12-07T12:19:21;2.30;;;2.10;;
21621;SDS011;10973;46.706;12.340;2022-12-07T12:22:37;2.30;;;2.20;;
21621;SDS011;10973;46.706;12.340;2022-12-07T12:27:55;2.60;;;2.40;;
21621;SDS011;10973;46.706;12.340;2022-12-07T12:30:31;1.77;;;1.70;;
21621;SDS011;10973;46.706;12.340;2022-12-07T12:33:20;1.93;;;1.83;;
21621;SDS011;10973;46.706;12.340;2022-12-07T12:36:59;1.80;;;1.70;;
21621;SDS011;10973;46.706;12.340;2022-12-07T12:47:38;2.63;;;2.30;;
21621;SDS011;10973;46.706;12.340;2022-12-07T12:50:20;4.77;;;4.10;;
21621;SDS011;10973;46.706;12.340;2022-12-07T12:52:52;7.87;;;4.60;;
21621;SDS011;10973;46.706;12.340;2022-12-07T12:55:27;8.43;;;4.47;;
21621;SDS011;10973;46.706;12.340;2022-12-07T13:01:30;9.50;;;5.27;;
21621;SDS011;10973;46.706;12.340;2022-12-07T13:04:17;6.53;;;5.10;;
21621;SDS011;10973;46.706;12.340;2022-12-07T13:06:48;6.50;;;5.03;;
21621;SDS011;10973;46.706;12.340;2022-12-07T13:09:26;8.43;;;4.83;;
21621;SDS011;10973;46.706;12.340;2022-12-07T13:12:04;6.20;;;5.50;;
21621;SDS011;10973;46.706;12.340;2022-12-07T13:14:58;29.93;;;19.23;;
21621;SDS011;10973;46.706;12.340;2022-12-07T13:20:00;24.77;;;15.33;;
21621;SDS011;10973;46.706;12.340;2022-12-07T13:25:07;22.97;;;15.60;;
21621;SDS011;10973;46.706;12.340;2022-12-07T13:28:31;25.17;;;16.50;;
21621;SDS011;10973;46.706;12.340;2022-12-07T13:30:45;22.53;;;14.40;;
21621;SDS011;10973;46.706;12.340;2022-12-07T13:33:54;16.63;;;10.90;;
21621;SDS011;10973;46.706;12.340;2022-12-07T13:36:22;13.07;;;9.27;;
21621;SDS011;10973;46.706;12.340;2022-12-07T13:38:54;18.43;;;13.17;;
21621;SDS011;10973;46.706;12.340;2022-12-07T13:41:36;23.67;;;15.40;;
21621;SDS011;10973;46.706;12.340;2022-12-07T13:44:10;24.73;;;16.97;;
21621;SDS011;10973;46.706;12.340;2022-12-07T13:49:27;21.83;;;15.47;;
21621;SDS011;10973;46.706;12.340;2022-12-07T13:52:18;15.43;;;10.20;;
21621;SDS011;10973;46.706;12.340;2022-12-07T13:55:05;9.57;;;7.70;;
21621;SDS011;10973;46.706;12.340;2022-12-07T13:57:42;8.53;;;6.97;;
21621;SDS011;10973;46.706;12.340;2022-12-07T14:00:16;10.37;;;7.67;;
21621;SDS011;10973;46.706;12.340;2022-12-07T14:02:59;10.00;;;7.00;;
21621;SDS011;10973;46.706;12.340;2022-12-07T14:05:43;11.23;;;8.13;;
21621;SDS011;10973;46.706;12.340;2022-12-07T14:10:40;7.47;;;6.40;;
21621;SDS011;10973;46.706;12.340;2022-12-07T14:15:50;7.90;;;7.10;;
21621;SDS011;10973;46.706;12.340;2022-12-07T14:18:31;8.57;;;6.40;;
21621;SDS011;10973;46.706;12.340;2022-12-07T14:21:18;5.20;;;4.63;;
21621;SDS011;10973;46.706;12.340;2022-12-07T14:26:38;6.17;;;5.60;;
21621;SDS011;10973;46.706;12.340;2022-12-07T14:29:21;6.47;;;4.10;;
21621;SDS011;10973;46.706;12.340;2022-12-07T14:32:04;4.10;;;3.80;;
21621;SDS011;10973;46.706;12.340;2022-12-07T14:35:00;5.57;;;4.13;;
21621;SDS011;10973;46.706;12.340;2022-12-07T14:37:40;4.40;;;4.00;;
21621;SDS011;10973;46.706;12.340;2022-12-07T14:40:14;3.33;;;3.13;;
21621;SDS011;10973;46.706;12.340;2022-12-07T14:42:54;4.73;;;4.03;;
21621;SDS011;10973;46.706;12.340;2022-12-07T14:45:27;6.83;;;4.60;;
21621;SDS011;10973;46.706;12.340;2022-12-07T14:47:55;9.03;;;6.37;;
21621;SDS011;10973;46.706;12.340;2022-12-07T14:50:44;14.40;;;10.93;;
21621;SDS011;10973;46.706;12.340;2022-12-07T14:53:39;22.90;;;13.87;;
21621;SDS011;10973;46.706;12.340;2022-12-07T14:56:18;25.07;;;15.93;;
21621;SDS011;10973;46.706;12.340;2022-12-07T14:58:46;23.60;;;14.67;;
21621;SDS011;10973;46.706;12.340;2022-12-07T15:01:13;24.50;;;15.67;;
21621;SDS011;10973;46.706;12.340;2022-12-07T15:03:40;24.33;;;14.47;;
21621;SDS011;10973;46.706;12.340;2022-12-07T15:06:10;20.53;;;12.57;;
21621;SDS011;10973;46.706;12.340;2022-12-07T15:08:43;19.43;;;12.07;;
21621;SDS011;10973;46.706;12.340;2022-12-07T15:11:15;25.73;;;15.10;;
21621;SDS011;10973;46.706;12.340;2022-12-07T15:13:47;26.77;;;14.73;;
21621;SDS011;10973;46.706;12.340;2022-12-07T15:16:19;32.73;;;18.83;;
21621;SDS011;10973;46.706;12.340;2022-12-07T15:18:48;43.47;;;18.77;;
21621;SDS011;10973;46.706;12.340;2022-12-07T15:21:36;51.30;;;25.47;;
21621;SDS011;10973;46.706;12.340;2022-12-07T15:24:04;46.77;;;22.37;;
21621;SDS011;10973;46.706;12.340;2022-12-07T15:26:32;35.40;;;19.57;;
21621;SDS011;10973;46.706;12.340;2022-12-07T15:28:59;36.50;;;21.97;;
21621;SDS011;10973;46.706;12.340;2022-12-07T15:31:27;40.57;;;24.87;;
21621;SDS011;10973;46.706;12.340;2022-12-07T15:34:18;47.77;;;28.90;;
21621;SDS011;10973;46.706;12.340;2022-12-07T15:36:46;35.77;;;25.77;;
21621;SDS011;10973;46.706;12.340;2022-12-07T15:39:13;24.73;;;19.47;;
21621;SDS011;10973;46.706;12.340;2022-12-07T15:41:41;22.23;;;16.47;;
21621;SDS011;10973;46.706;12.340;2022-12-07T15:44:12;23.07;;;16.23;;
21621;SDS011;10973;46.706;12.340;2022-12-07T15:46:40;19.83;;;14.97;;
21621;SDS011;10973;46.706;12.340;2022-12-07T15:49:10;24.10;;;17.30;;
21621;SDS011;10973;46.706;12.340;2022-12-07T15:51:45;60.93;;;33.30;;
21621;SDS011;10973;46.706;12.340;2022-12-07T15:54:18;44.43;;;26.30;;
21621;SDS011;10973;46.706;12.340;2022-12-07T15:56:51;21.80;;;16.73;;
21621;SDS011;10973;46.706;12.340;2022-12-07T15:59:19;24.13;;;15.13;;
21621;SDS011;10973;46.706;12.340;2022-12-07T16:01:46;19.00;;;13.53;;
21621;SDS011;10973;46.706;12.340;2022-12-07T16:04:14;15.77;;;12.00;;
21621;SDS011;10973;46.706;12.340;2022-12-07T16:06:41;16.70;;;11.60;;
21621;SDS011;10973;46.706;12.340;2022-12-07T16:09:08;15.93;;;12.83;;
21621;SDS011;10973;46.706;12.340;2022-12-07T16:11:36;18.90;;;13.40;;
21621;SDS011;10973;46.706;12.340;2022-12-07T16:14:04;16.57;;;13.00;;
21621;SDS011;10973;46.706;12.340;2022-12-07T16:16:32;31.73;;;18.03;;
21621;SDS011;10973;46.706;12.340;2022-12-07T16:19:00;33.93;;;24.83;;
21621;SDS011;10973;46.706;12.340;2022-12-07T16:21:27;27.83;;;19.97;;
21621;SDS011;10973;46.706;12.340;2022-12-07T16:23:56;25.60;;;15.63;;
21621;SDS011;10973;46.706;12.340;2022-12-07T16:26:25;19.67;;;14.40;;
21621;SDS011;10973;46.706;12.340;2022-12-07T16:28:52;17.93;;;14.80;;
21621;SDS011;10973;46.706;12.340;2022-12-07T16:31:21;19.10;;;13.57;;
21621;SDS011;10973;46.706;12.340;2022-12-07T16:33:55;12.67;;;9.37;;
21621;SDS011;10973;46.706;12.340;2022-12-07T16:36:25;13.17;;;11.30;;
21621;SDS011;10973;46.706;12.340;2022-12-07T16:39:12;24.77;;;18.77;;
21621;SDS011;10973;46.706;12.340;2022-12-07T16:41:56;23.67;;;16.00;;
21621;SDS011;10973;46.706;12.340;2022-12-07T16:44:24;27.60;;;16.73;;
21621;SDS011;10973;46.706;12.340;2022-12-07T16:46:52;22.73;;;15.73;;
21621;SDS011;10973;46.706;12.340;2022-12-07T16:49:19;15.27;;;12.67;;
21621;SDS011;10973;46.706;12.340;2022-12-07T16:51:49;18.83;;;10.93;;
21621;SDS011;10973;46.706;12.340;2022-12-07T16:54:36;16.20;;;12.80;;
21621;SDS011;10973;46.706;12.340;2022-12-07T16:57:04;21.77;;;13.50;;
21621;SDS011;10973;46.706;12.340;2022-12-07T16:59:31;18.73;;;14.03;;
21621;SDS011;10973;46.706;12.340;2022-12-07T17:01:58;40.87;;;25.63;;
21621;SDS011;10973;46.706;12.340;2022-12-07T17:04:26;53.77;;;33.00;;
21621;SDS011;10973;46.706;12.340;2022-12-07T17:06:53;96.83;;;47.60;;
21621;SDS011;10973;46.706;12.340;2022-12-07T17:09:20;103.57;;;51.83;;